EDT,Max TemperatureF,Mean TemperatureF,Min TemperatureF,Max Dew PointF,MeanDew PointF,Min DewpointF,Max Humidity, Mean Humidity, Min Humidity, Max Sea Level PressureIn, Mean Sea Level PressureIn, Min Sea Level PressureIn, Max VisibilityMiles, Mean VisibilityMiles, Min VisibilityMiles, Max Wind SpeedMPH, Mean Wind SpeedMPH, Max Gust SpeedMPH,PrecipitationIn, CloudCover, Events, WindDirDegrees
2013-10-1,82,67,53,60,56,50,93,70,45,30.05,30.01,29.95,10,10,8,9,2,,0.00,1,,281
2013-10-2,84,72,60,63,60,56,90,68,44,30.05,30.01,29.96,10,9,6,15,5,,0.00,0,,271
2013-10-3,84,72,62,62,59,53,87,65,39,30.14,30.09,30.05,10,9,7,6,2,,0.00,0,,130
2013-10-4,87,74,62,65,63,60,93,69,46,30.09,30.05,30.00,10,8,3,13,2,,0.00,1,,258
2013-10-5,,,,,,,,,,,,,,,,,,,,,,
2013-10-6,82,76,70,70,68,64,85,76,63,30.08,30.02,29.99,10,8,6,14,7,,0.00,6,,85
2013-10-7,81,70,59,70,64,47,94,86,64,30.04,29.90,29.79,10,7,0,20,6,34,0.60,7,Fog-Rain,215
2013-10-8,68,60,51,49,46,45,86,66,45,30.33,30.23,30.06,10,10,10,15,4,,0.01,0,,9
2013-10-9,63,58,54,50,47,43,75,66,56,30.38,30.33,30.26,10,10,10,17,11,25,0.00,2,,47
2013-10-10,63,58,53,57,53,48,94,83,67,30.25,30.16,30.04,10,9,2,18,13,24,0.26,8,Rain,45
2013-10-11,66,63,60,63,60,56,94,88,73,30.07,30.02,29.99,10,6,1,17,15,24,1.10,8,Rain-Thunderstorm,49
2013-10-12,73,66,61,58,53,43,78,63,49,30.25,30.16,30.05,10,10,10,18,14,29,0.01,8,,63
2013-10-13,68,61,52,54,51,46,86,68,50,30.38,30.33,30.25,10,10,10,17,14,25,0.01,4,Rain,71
2013-10-14,71,59,48,52,49,46,90,73,47,30.37,30.32,30.25,10,10,10,10,6,,0.00,1,,52
2013-10-15,73,60,48,54,47,39,93,69,34,30.27,30.20,30.12,10,10,8,10,3,,0.01,0,,65
2013-10-16,71,62,53,61,56,50,94,82,63,30.12,30.05,29.94,10,9,4,6,2,,0.00,5,,54
2013-10-17,73,68,62,64,61,60,94,79,65,29.94,29.86,29.73,10,9,5,10,3,21,0.02,7,Rain,202
2013-10-18,68,60,48,63,46,41,83,61,42,30.03,29.91,29.74,10,10,10,18,12,26,0.01,2,,285
2013-10-19,66,54,44,55,47,40,90,74,48,30.03,29.91,29.80,10,10,7,9,2,,0.06,3,Rain,192
2013-10-20,64,54,46,52,39,35,87,59,35,30.11,29.99,29.83,10,10,10,18,9,24,0.01,0,,288
2013-10-21,68,54,41,47,40,34,89,61,30,30.18,30.10,30.00,10,10,10,10,2,17,0.01,0,,198
2013-10-22,69,56,46,50,44,31,90,67,45,29.99,29.87,29.81,10,10,6,15,3,,0.00,2,,268
2013-10-23,57,50,44,41,36,31,73,58,45,29.84,29.75,29.64,10,10,10,14,6,,0.02,6,Rain,351
2013-10-24,54,47,41,36,31,26,74,57,37,30.09,29.97,29.83,10,10,10,20,10,26,0.01,2,,273
2013-10-25,55,47,39,35,31,29,70,58,37,30.28,30.19,30.09,10,10,10,15,8,24,0.01,1,,279
2013-10-26,57,46,36,34,31,27,79,53,33,30.28,30.13,29.94,10,10,10,17,7,30,0.00,1,,233
2013-10-27,60,52,44,34,32,30,60,48,36,30.17,30.02,29.92,10,10,10,15,9,23,0.00,1,,278
2013-10-28,64,50,36,37,35,31,86,59,37,30.32,30.24,30.17,10,10,1,9,3,,0.01,0,,273
2013-10-29,62,52,42,43,38,32,82,63,41,30.42,30.38,30.33,10,10,10,9,5,,0.00,0,,49
2013-10-30,59,52,44,53,46,39,87,82,75,30.36,30.28,30.21,10,9,6,6,1,,0.01,6,Rain,170
2013-10-31,71,60,48,62,54,46,100,87,61,30.23,30.11,29.83,10,4,0,9,2,20,0.01,6,Fog-Rain,181